Keystone, South Dakota
Current Conditions -  °F | °C
As of 5:53 AM on Thursday 30 Oct 2014 (Local Time) from KCUT Reporting Station
Clear Clear  
Wind Chill: 32°   Ceiling: Unl
Heat Index: 37°   Visibility: 10mi
Dew Point: 26°   Wind: 7mph
Humidity: 65%   Direction: 260°W
Pressure: 30.24"   Gusts: NA
Location:  43.9°N, 103.42°W
Report Text: KCUT 301153Z AUTO 26006KT 10SM CLR 03/M03 A3024 RMK AO2 SLP229 T00281033 10072 20017 51014
Loading
Personal Weather Stations






























Interactive Weather Map
Tropical Storm Tracking
New forecast layout! Learn more

10-Day Weather Forecast

Advertisements
Track Severe Weather on mobile